Sonora, Ohio
Current Conditions -  °F | °C
As of 2:53 AM on Tuesday 21 Oct 2014 (Local Time) from KZZV Reporting Station
Clear Clear  
Wind Chill: 45°   Ceiling: Unl
Heat Index: 47°   Visibility: 9mi
Dew Point: 45°   Wind: 5mph
Humidity: 93%   Direction: 240°WSW
Pressure: 29.88"   Gusts: NA
Location:  39.9489°N, 82.0572°W
Report Text: KZZV 210653Z AUTO 24004KT 9SM CLR 08/07 A2988 RMK AO2 SLP117 T00830072
Loading
Personal Weather Stations






























Interactive Weather Map
Tropical Storm Tracking
New forecast layout! Learn more

10-Day Weather Forecast

Advertisements
Track Severe Weather on mobile